Time;durP1;ratioP1;P1;durP2;ratioP2;P2;SDS_P1;SDS_P2;PMS_P1;PMS_P2;Temp;Humidity;BMP_temperature;BMP_pressure;BME280_temperature;BME280_humidity;BME280_pressure;Samples;Min_cycle;Max_cycle;Signal;HPM_P1;HPM_P2
2023/10/16 00:01:51;;;;;;;3.28;0.95;;;7.90;99.90;;;;;;5091306;28;20043;-79
2023/10/16 00:04:18;;;;;;;3.22;0.50;;;7.90;99.90;;;;;;5091207;28;20680;-79
2023/10/16 00:06:49;;;;;;;3.70;0.65;;;7.90;99.90;;;;;;5074228;28;20112;-79
2023/10/16 00:09:15;;;;;;;1.38;0.40;;;7.90;99.90;;;;;;5091726;28;20488;-79
2023/10/16 00:11:42;;;;;;;2.15;0.85;;;8.00;99.90;;;;;;5091928;28;20048;-79
2023/10/16 00:14:41;;;;;;;2.35;0.80;;;7.90;99.90;;;;;;5092160;28;20080;-79
2023/10/16 00:16:59;;;;;;;5.35;0.70;;;8.00;99.90;;;;;;5087680;28;20048;-79
2023/10/16 00:19:25;;;;;;;3.88;0.88;;;7.90;99.90;;;;;;5091319;28;20039;-79
2023/10/16 00:21:52;;;;;;;4.78;0.90;;;8.00;99.90;;;;;;5074507;28;20071;-79
2023/10/16 00:24:18;;;;;;;3.13;0.90;;;8.00;99.90;;;;;;5074729;28;20051;-79
2023/10/16 00:26:50;;;;;;;9.73;1.10;;;7.90;99.90;;;;;;5091249;28;20036;-79
2023/10/16 00:29:19;;;;;;;5.38;0.73;;;7.90;99.90;;;;;;5090832;28;20036;-79
2023/10/16 00:31:51;;;;;;;2.30;0.70;;;7.90;99.90;;;;;;5092608;28;20036;-78
2023/10/16 00:34:20;;;;;;;3.78;0.80;;;7.90;99.90;;;;;;5091677;28;20054;-79
2023/10/16 00:36:54;;;;;;;5.18;1.10;;;7.90;99.90;;;;;;5092518;28;20040;-79
2023/10/16 00:39:20;;;;;;;4.70;0.80;;;7.90;99.90;;;;;;5091375;28;20117;-78
2023/10/16 00:41:46;;;;;;;5.55;1.10;;;7.90;99.90;;;;;;5091157;28;20047;-79
2023/10/16 00:44:17;;;;;;;8.35;1.35;;;7.80;99.90;;;;;;5074210;28;20028;-78
2023/10/16 00:46:45;;;;;;;1.27;0.88;;;7.90;99.90;;;;;;5091217;28;20059;-78
2023/10/16 00:49:13;;;;;;;1.73;0.60;;;7.90;99.90;;;;;;5091215;28;20061;-78
2023/10/16 00:51:42;;;;;;;3.40;0.70;;;8.00;99.90;;;;;;5091095;28;20032;-78
2023/10/16 00:54:18;;;;;;;5.65;0.80;;;7.90;99.90;;;;;;5091146;28;20048;-78
2023/10/16 00:56:49;;;;;;;5.68;1.65;;;8.00;99.90;;;;;;5074486;28;20051;-78
2023/10/16 00:59:17;;;;;;;4.97;0.80;;;8.00;99.90;;;;;;5092202;28;20097;-78
2023/10/16 01:01:46;;;;;;;1.25;0.55;;;8.00;99.90;;;;;;5090624;28;20040;-78
2023/10/16 01:04:19;;;;;;;3.20;0.93;;;8.00;99.90;;;;;;5090683;28;20035;-79
2023/10/16 01:06:45;;;;;;;2.45;0.63;;;7.90;99.90;;;;;;5074234;28;20560;-78
2023/10/16 01:09:24;;;;;;;1.52;0.60;;;7.90;99.90;;;;;;5090636;28;20036;-78
2023/10/16 01:11:50;;;;;;;4.75;0.80;;;8.00;99.90;;;;;;5074042;28;20039;-78
2023/10/16 01:14:17;;;;;;;5.10;1.90;;;7.90;99.90;;;;;;5090666;28;20040;-79
2023/10/16 01:16:43;;;;;;;3.70;0.70;;;8.00;99.90;;;;;;5064968;28;20404;-78
2023/10/16 01:19:10;;;;;;;8.32;1.20;;;7.90;99.90;;;;;;5077187;28;20044;-78
2023/10/16 01:21:36;;;;;;;3.30;0.80;;;7.90;99.90;;;;;;5070369;28;20040;-78
2023/10/16 01:24:14;;;;;;;4.30;0.95;;;8.00;99.90;;;;;;5070653;28;20441;-78
2023/10/16 01:26:40;;;;;;;5.03;1.02;;;8.00;99.90;;;;;;5072427;28;20044;-78
2023/10/16 01:29:07;;;;;;;3.53;0.70;;;8.10;99.90;;;;;;5083224;28;20384;-78
2023/10/16 01:31:36;;;;;;;6.25;1.08;;;8.00;99.90;;;;;;5090635;28;20372;-78
2023/10/16 01:34:10;;;;;;;2.33;0.70;;;8.00;99.90;;;;;;5074149;28;20491;-78
2023/10/16 01:36:37;;;;;;;3.03;1.02;;;8.00;99.90;;;;;;5081578;28;20115;-78
2023/10/16 01:39:08;;;;;;;3.05;0.82;;;8.10;99.90;;;;;;5066324;28;20040;-79
2023/10/16 01:41:34;;;;;;;6.10;1.63;;;8.00;99.90;;;;;;5091689;28;20036;-79
2023/10/16 01:44:09;;;;;;;2.20;0.88;;;8.10;99.90;;;;;;5094741;28;20491;-79
2023/10/16 01:46:35;;;;;;;2.42;0.65;;;8.00;99.90;;;;;;5095248;28;20097;-79
2023/10/16 01:49:02;;;;;;;5.50;0.98;;;8.10;99.90;;;;;;5094667;28;20044;-79
2023/10/16 01:51:30;;;;;;;5.75;0.98;;;8.10;99.90;;;;;;5094733;28;20044;-79
2023/10/16 01:53:56;;;;;;;2.95;1.00;;;8.00;99.90;;;;;;5094757;28;20039;-79
2023/10/16 01:56:22;;;;;;;3.47;0.85;;;8.00;99.90;;;;;;5062721;28;20066;-79
2023/10/16 01:58:52;;;;;;;4.47;1.13;;;8.00;99.90;;;;;;5093274;28;20046;-79
2023/10/16 02:01:18;;;;;;;3.92;1.15;;;8.00;99.90;;;;;;5094588;28;20515;-79
2023/10/16 02:03:49;;;;;;;3.38;1.38;;;7.90;99.90;;;;;;5094814;28;20082;-79
2023/10/16 02:06:16;;;;;;;2.78;0.93;;;7.90;99.90;;;;;;5094998;28;20086;-79
2023/10/16 02:08:44;;;;;;;4.05;1.00;;;7.90;99.90;;;;;;5094895;28;20032;-79
2023/10/16 02:11:10;;;;;;;4.95;0.90;;;7.90;99.90;;;;;;5094292;28;20093;-79
2023/10/16 02:13:40;;;;;;;4.95;1.27;;;7.90;99.90;;;;;;5094978;28;20471;-79
2023/10/16 02:16:10;;;;;;;4.05;0.73;;;7.90;99.90;;;;;;5094352;28;20040;-79
2023/10/16 02:18:42;;;;;;;2.38;1.08;;;7.80;99.90;;;;;;5094561;28;20089;-79
2023/10/16 02:21:12;;;;;;;2.25;0.82;;;7.90;99.90;;;;;;5093826;28;20482;-79
2023/10/16 02:23:38;;;;;;;5.07;1.30;;;7.90;99.90;;;;;;5094187;28;20043;-79
2023/10/16 02:26:06;;;;;;;2.13;1.10;;;7.90;99.90;;;;;;5111549;22;21227;-73
2023/10/16 02:28:32;;;;;;;8.25;1.33;;;7.80;99.90;;;;;;5115473;28;20431;-73
2023/10/16 02:31:14;;;;;;;2.85;1.33;;;7.90;99.90;;;;;;5114992;28;20075;-73
2023/10/16 02:34:33;;;;;;;3.08;0.90;;;7.80;99.90;;;;;;5097116;28;20043;-73
2023/10/16 02:36:31;;;;;;;3.28;0.80;;;7.70;99.90;;;;;;5103668;28;20117;-73
2023/10/16 02:38:56;;;;;;;4.07;1.35;;;7.80;99.90;;;;;;5096561;28;20047;-73
2023/10/16 02:41:22;;;;;;;6.07;1.38;;;7.80;99.90;;;;;;5114923;28;20426;-73
2023/10/16 02:43:49;;;;;;;5.38;1.20;;;7.80;99.90;;;;;;5115144;28;20035;-71
2023/10/16 02:46:21;;;;;;;3.67;0.85;;;7.90;99.90;;;;;;5114936;28;20036;-70
2023/10/16 02:48:47;;;;;;;5.43;1.10;;;7.90;99.90;;;;;;5114798;28;20164;-70
2023/10/16 02:51:16;;;;;;;2.72;0.90;;;7.90;99.90;;;;;;5096612;28;20039;-71
2023/10/16 02:53:43;;;;;;;6.38;1.05;;;7.90;99.90;;;;;;5114517;28;20051;-71
2023/10/16 02:56:14;;;;;;;2.70;0.82;;;7.80;99.90;;;;;;5114477;28;20436;-70
2023/10/16 02:58:44;;;;;;;2.70;1.00;;;7.90;99.90;;;;;;5114664;28;20514;-71
2023/10/16 03:01:18;;;;;;;3.03;1.10;;;7.90;99.90;;;;;;5114162;28;20394;-70
2023/10/16 03:03:48;;;;;;;2.55;1.10;;;7.80;99.90;;;;;;5114654;28;20510;-70
2023/10/16 03:06:18;;;;;;;8.75;1.20;;;7.80;99.90;;;;;;5114679;28;20035;-71
2023/10/16 03:08:50;;;;;;;1.00;0.80;;;7.80;99.90;;;;;;5114643;28;20047;-71
2023/10/16 03:11:17;;;;;;;2.47;1.35;;;7.70;99.90;;;;;;5114177;28;20410;-70
2023/10/16 03:13:43;;;;;;;4.82;1.48;;;7.80;99.90;;;;;;5114291;28;20494;-71
2023/10/16 03:16:17;;;;;;;1.88;0.82;;;7.90;99.90;;;;;;5114494;28;20039;-71
2023/10/16 03:18:44;;;;;;;2.47;0.85;;;7.90;99.90;;;;;;5114486;28;20043;-70
2023/10/16 03:23:47;;;;;;;3.10;1.20;;;7.90;99.90;;;;;;5114234;28;20120;-71
2023/10/16 03:26:28;;;;;;;3.08;0.90;;;8.00;99.90;;;;;;5113874;28;20043;-71
2023/10/16 03:29:00;;;;;;;2.47;0.80;;;7.90;99.90;;;;;;5114293;28;20124;-71
2023/10/16 03:31:27;;;;;;;4.38;0.80;;;7.90;99.90;;;;;;5113919;28;20039;-71
2023/10/16 03:33:56;;;;;;;2.63;0.95;;;8.00;99.90;;;;;;5114096;28;20406;-71
2023/10/16 03:36:22;;;;;;;1.55;0.80;;;7.90;99.90;;;;;;5113915;28;20039;-71
2023/10/16 03:38:51;;;;;;;3.38;0.95;;;7.90;99.90;;;;;;5113757;28;20040;-71
2023/10/16 03:43:47;;;;;;;7.38;1.25;;;7.80;99.90;;;;;;5113878;28;20065;-71
2023/10/16 03:46:13;;;;;;;6.47;1.10;;;7.80;99.90;;;;;;5113829;28;20040;-71
2023/10/16 03:48:39;;;;;;;4.63;0.85;;;7.90;99.90;;;;;;5113781;28;20035;-71
2023/10/16 03:51:08;;;;;;;2.70;0.85;;;7.90;99.90;;;;;;5095094;28;20410;-71
2023/10/16 03:53:35;;;;;;;4.72;1.10;;;8.00;99.90;;;;;;5113810;28;20082;-71
2023/10/16 03:56:02;;;;;;;3.88;1.35;;;7.90;99.90;;;;;;5095227;28;20047;-71
2023/10/16 03:58:27;;;;;;;4.57;1.08;;;7.90;99.90;;;;;;5095212;28;20040;-71
2023/10/16 04:00:53;;;;;;;2.67;0.88;;;8.00;99.90;;;;;;5094992;28;20406;-71
2023/10/16 04:03:19;;;;;;;5.53;0.85;;;8.00;99.90;;;;;;5078283;28;20176;-71
2023/10/16 04:05:46;;;;;;;3.58;0.65;;;8.10;99.90;;;;;;5077527;28;20050;-71
2023/10/16 04:08:23;;;;;;;3.90;1.02;;;8.00;99.90;;;;;;5113444;28;20094;-71
2023/10/16 04:10:49;;;;;;;2.60;0.80;;;8.10;99.90;;;;;;5095008;28;20040;-71
2023/10/16 04:13:18;;;;;;;3.55;0.80;;;8.10;99.90;;;;;;5095021;28;20051;-71
2023/10/16 04:20:55;;;;;;;5.15;1.10;;;8.00;99.90;;;;;;5094845;28;20422;-73
2023/10/16 04:23:37;;;;;;;4.32;1.00;;;8.00;99.90;;;;;;5094937;28;20050;-71
2023/10/16 04:43:08;;;;;;;5.93;1.38;;;8.10;99.90;;;;;;5094299;28;20047;-71
2023/10/16 04:47:42;;;;;;;4.88;1.48;;;8.30;99.90;;;;;;5094556;28;20512;-71
2023/10/16 04:50:11;;;;;;;4.82;1.00;;;8.30;99.90;;;;;;5094102;28;20066;-71
2023/10/16 04:55:53;;;;;;;2.33;1.00;;;8.30;99.90;;;;;;5112522;28;20114;-71
2023/10/16 05:06:38;;;;;;;5.20;0.90;;;8.30;99.90;;;;;;5094202;28;20047;-71
2023/10/16 06:16:22;;;;;;;4.13;1.00;;;8.40;99.90;;;;;;5111693;28;20043;-69
2023/10/16 06:18:48;;;;;;;2.63;1.25;;;8.30;99.90;;;;;;5093409;28;20188;-69
2023/10/16 06:21:15;;;;;;;2.50;1.30;;;8.40;99.90;;;;;;5111136;28;20044;-71
2023/10/16 06:23:48;;;;;;;6.32;1.27;;;8.40;99.90;;;;;;5111867;28;20036;-72
2023/10/16 06:26:18;;;;;;;2.75;1.35;;;8.40;99.90;;;;;;5111567;28;20039;-69
2023/10/16 06:28:51;;;;;;;6.28;1.70;;;8.40;99.90;;;;;;5114540;28;20056;-71
2023/10/16 06:31:24;;;;;;;3.95;1.73;;;8.50;99.90;;;;;;5115092;28;20422;-72
2023/10/16 06:33:55;;;;;;;4.60;1.50;;;8.50;99.90;;;;;;5097248;28;20047;-71
2023/10/16 06:36:23;;;;;;;5.97;1.45;;;8.50;99.90;;;;;;5096939;28;20480;-69
2023/10/16 06:38:53;;;;;;;3.97;1.45;;;8.40;99.90;;;;;;5115231;28;20035;-69
2023/10/16 06:41:22;;;;;;;2.85;1.55;;;8.50;99.90;;;;;;5114816;28;20070;-69
2023/10/16 06:43:50;;;;;;;5.72;1.40;;;8.60;99.90;;;;;;5115057;28;20032;-69
2023/10/16 06:46:23;;;;;;;4.30;1.50;;;8.50;99.90;;;;;;5114780;28;20031;-69
2023/10/16 06:48:50;;;;;;;6.00;1.60;;;8.50;99.90;;;;;;5096769;28;20040;-69
2023/10/16 06:51:16;;;;;;;3.50;1.52;;;8.50;99.90;;;;;;5114570;28;20652;-69
2023/10/16 06:53:44;;;;;;;3.03;1.35;;;8.50;99.90;;;;;;5115026;28;20123;-69
2023/10/16 06:56:14;;;;;;;4.18;1.80;;;8.50;99.90;;;;;;5096621;28;20043;-69
2023/10/16 06:58:40;;;;;;;6.93;2.10;;;8.50;99.90;;;;;;5114637;28;20518;-69
2023/10/16 07:01:06;;;;;;;6.10;1.60;;;8.60;99.90;;;;;;5114548;28;20124;-69
2023/10/16 07:03:33;;;;;;;4.03;1.48;;;8.60;99.90;;;;;;5096465;28;20111;-69
2023/10/16 07:05:59;;;;;;;5.45;1.42;;;8.70;99.90;;;;;;5114552;28;20120;-69
2023/10/16 07:08:25;;;;;;;5.85;1.40;;;8.70;99.90;;;;;;5114586;28;20119;-69
2023/10/16 07:11:03;;;;;;;3.15;1.65;;;8.70;99.90;;;;;;5095986;28;20123;-69
2023/10/16 07:13:31;;;;;;;7.22;1.50;;;8.70;99.90;;;;;;5096241;28;20058;-69
2023/10/16 07:16:02;;;;;;;3.75;1.70;;;8.80;99.90;;;;;;5114380;28;20039;-69
2023/10/16 07:18:29;;;;;;;5.60;2.17;;;8.70;99.90;;;;;;5114441;28;20044;-69
2023/10/16 07:20:59;;;;;;;4.75;1.77;;;8.70;99.90;;;;;;5095869;28;20082;-69
2023/10/16 07:23:30;;;;;;;5.57;3.40;;;8.80;99.90;;;;;;5114277;28;20058;-69
2023/10/16 07:25:59;;;;;;;5.05;1.60;;;8.80;99.90;;;;;;5078839;28;20040;-69
2023/10/16 07:28:27;;;;;;;3.08;1.30;;;8.80;99.90;;;;;;5095979;28;20566;-69
2023/10/16 07:30:56;;;;;;;3.95;1.50;;;8.80;99.90;;;;;;5114239;28;20383;-69
2023/10/16 07:33:23;;;;;;;5.55;1.92;;;8.90;99.90;;;;;;5114313;28;20443;-69
2023/10/16 07:35:50;;;;;;;10.07;1.50;;;8.80;99.90;;;;;;5114113;28;20043;-69
2023/10/16 07:38:21;;;;;;;5.43;1.27;;;8.80;99.90;;;;;;5113713;28;20039;-69
2023/10/16 07:40:51;;;;;;;5.78;2.10;;;8.80;99.90;;;;;;5113337;28;20044;-69
2023/10/16 07:43:32;;;;;;;5.55;1.85;;;8.90;99.90;;;;;;5114117;28;20604;-69
2023/10/16 07:48:44;;;;;;;3.35;1.70;;;8.80;99.90;;;;;;5095776;28;20406;-69
2023/10/16 07:51:10;;;;;;;5.68;1.35;;;8.90;99.90;;;;;;5113733;28;20035;-69
2023/10/16 07:53:37;;;;;;;3.00;1.40;;;8.90;99.90;;;;;;5095376;28;20035;-69
2023/10/16 07:56:17;;;;;;;2.72;1.48;;;9.00;99.90;;;;;;5095287;28;20043;-69
2023/10/16 07:58:48;;;;;;;3.92;1.75;;;9.10;99.90;;;;;;5113681;28;20128;-69
2023/10/16 08:03:41;;;;;;;6.65;1.77;;;9.20;99.90;;;;;;5113608;28;20042;-71
2023/10/16 08:06:16;;;;;;;2.67;1.50;;;9.30;99.90;;;;;;5095106;28;20053;-69
2023/10/16 08:08:45;;;;;;;6.03;1.70;;;9.30;99.90;;;;;;5113508;28;20039;-68
2023/10/16 08:11:14;;;;;;;3.15;1.50;;;9.30;99.90;;;;;;5078039;28;20096;-68
2023/10/16 08:13:46;;;;;;;5.70;1.90;;;9.30;99.90;;;;;;5113204;28;20040;-68
2023/10/16 08:16:21;;;;;;;4.00;1.70;;;9.40;99.90;;;;;;5095162;28;20039;-69
2023/10/16 08:18:51;;;;;;;4.45;1.63;;;9.50;99.90;;;;;;5113115;28;20562;-68
2023/10/16 08:21:26;;;;;;;4.05;1.77;;;9.50;99.90;;;;;;5112902;28;20043;-69
2023/10/16 08:23:57;;;;;;;5.82;1.67;;;9.50;99.90;;;;;;5113168;28;20059;-68
2023/10/16 08:26:30;;;;;;;7.45;2.17;;;9.60;99.90;;;;;;5128909;22;20020;-70
2023/10/16 08:29:12;;;;;;;5.10;2.75;;;9.50;99.90;;;;;;5156369;27;20039;-69
2023/10/16 08:31:42;;;;;;;6.60;2.13;;;9.60;99.90;;;;;;5157670;27;20055;-69
2023/10/16 08:34:10;;;;;;;5.13;1.70;;;9.60;99.90;;;;;;5157801;27;20035;-69
2023/10/16 08:36:36;;;;;;;6.70;1.98;;;9.60;99.90;;;;;;5155377;27;20409;-71
2023/10/16 08:39:09;;;;;;;6.47;1.60;;;9.70;99.90;;;;;;5153524;27;20083;-72
2023/10/16 08:44:24;;;;;;;5.22;1.90;;;9.80;99.90;;;;;;5153492;27;20295;-71
2023/10/16 08:47:33;;;;;;;4.82;1.88;;;9.90;99.90;;;;;;5154278;27;20045;-71
2023/10/16 08:49:40;;;;;;;4.80;1.95;;;10.00;99.90;;;;;;5144864;27;20051;-71
2023/10/16 08:52:10;;;;;;;5.18;1.60;;;10.20;99.90;;;;;;5152296;27;20055;-71
2023/10/16 08:55:00;;;;;;;5.70;1.77;;;10.20;99.90;;;;;;5135523;27;20054;-71
2023/10/16 08:57:26;;;;;;;6.22;2.17;;;10.20;99.90;;;;;;5153845;27;20460;-71
2023/10/16 08:59:52;;;;;;;10.05;2.55;;;10.30;99.90;;;;;;5153945;27;20114;-71
2023/10/16 09:02:20;;;;;;;5.63;1.70;;;10.40;99.90;;;;;;5134987;27;20122;-71
2023/10/16 09:04:52;;;;;;;6.18;1.70;;;10.50;99.90;;;;;;5152450;27;20042;-71
2023/10/16 09:07:19;;;;;;;8.20;1.80;;;10.60;99.90;;;;;;5152380;27;20081;-71
2023/10/16 09:09:48;;;;;;;4.15;1.40;;;10.70;99.90;;;;;;5134917;27;20066;-72
2023/10/16 09:12:26;;;;;;;8.75;1.70;;;10.70;99.90;;;;;;5152141;27;20057;-71
2023/10/16 09:14:52;;;;;;;8.07;1.60;;;10.80;99.90;;;;;;5151345;27;20038;-71
2023/10/16 09:17:19;;;;;;;5.78;1.33;;;10.70;99.90;;;;;;5150323;27;20409;-71
2023/10/16 09:19:48;;;;;;;8.65;1.80;;;10.90;99.90;;;;;;5144692;27;20041;-71
2023/10/16 09:22:15;;;;;;;10.30;2.15;;;11.00;99.90;;;;;;5152144;27;20035;-72
2023/10/16 09:24:45;;;;;;;3.60;1.52;;;11.00;99.90;;;;;;5139413;27;20163;-71
2023/10/16 09:27:23;;;;;;;5.78;1.88;;;11.10;99.90;;;;;;5126727;27;20087;-70
2023/10/16 09:29:55;;;;;;;3.88;1.70;;;11.20;99.90;;;;;;5124195;27;20172;-71
2023/10/16 09:32:39;;;;;;;6.60;1.40;;;11.20;99.90;;;;;;5151858;27;20030;-71
2023/10/16 09:35:06;;;;;;;5.43;1.23;;;11.10;99.90;;;;;;5153300;27;20046;-71
2023/10/16 09:37:36;;;;;;;5.93;1.27;;;11.10;99.90;;;;;;5153472;27;20413;-71
2023/10/16 09:43:05;;;;;;;6.93;2.03;;;11.00;99.90;;;;;;5153162;27;20046;-71
2023/10/16 09:45:36;;;;;;;3.97;1.23;;;11.00;99.90;;;;;;5153128;27;20039;-71
2023/10/16 09:48:08;;;;;;;3.80;1.00;;;10.90;99.90;;;;;;5152145;27;20038;-71
2023/10/16 09:50:38;;;;;;;5.20;1.25;;;11.00;99.90;;;;;;5151634;27;20086;-71
2023/10/16 09:53:14;;;;;;;11.05;2.28;;;11.00;99.90;;;;;;5151803;27;20034;-71
2023/10/16 09:55:48;;;;;;;5.72;1.25;;;11.00;99.90;;;;;;5152289;27;20409;-71
2023/10/16 09:58:15;;;;;;;3.35;1.30;;;11.00;99.90;;;;;;5153209;27;20091;-71
2023/10/16 10:00:49;;;;;;;7.07;1.45;;;11.00;99.90;;;;;;5151701;27;20074;-71
2023/10/16 10:03:17;;;;;;;9.30;2.83;;;11.00;99.90;;;;;;5155392;27;20138;-71
2023/10/16 10:05:49;;;;;;;6.38;1.95;;;11.10;99.90;;;;;;5138994;27;20042;-71
2023/10/16 10:08:27;;;;;;;5.60;1.13;;;11.10;99.90;;;;;;5155699;27;20038;-71
2023/10/16 10:11:23;;;;;;;3.25;1.50;;;11.10;99.90;;;;;;5157002;27;20034;-71
2023/10/16 10:15:01;;;;;;;6.32;1.35;;;11.30;99.90;;;;;;5156966;27;20498;-71
2023/10/16 10:16:49;;;;;;;3.40;0.98;;;11.30;99.90;;;;;;5142774;27;20043;-71
2023/10/16 10:19:24;;;;;;;3.10;2.35;;;11.30;99.90;;;;;;5138228;27;20053;-71
2023/10/16 10:21:53;;;;;;;6.03;1.00;;;11.40;99.90;;;;;;5156707;27;20070;-71
2023/10/16 10:24:20;;;;;;;12.88;2.08;;;11.30;99.90;;;;;;5155658;27;20035;-71
2023/10/16 10:26:52;;;;;;;6.05;1.20;;;11.30;99.90;;;;;;5156526;27;20038;-71
2023/10/16 10:29:20;;;;;;;3.28;0.93;;;11.20;99.90;;;;;;5156400;27;20375;-71
2023/10/16 10:31:51;;;;;;;3.65;1.42;;;11.20;99.90;;;;;;5137859;27;20493;-71
2023/10/16 10:34:18;;;;;;;3.72;0.93;;;11.30;99.90;;;;;;5155292;27;20043;-71
2023/10/16 10:36:44;;;;;;;5.82;1.23;;;11.40;99.90;;;;;;5156569;27;20074;-71
2023/10/16 10:39:22;;;;;;;2.45;0.80;;;11.40;99.90;;;;;;5156384;27;20494;-71
2023/10/16 10:41:54;;;;;;;2.50;0.98;;;11.50;99.90;;;;;;5156119;27;20091;-71
2023/10/16 10:44:29;;;;;;;8.93;1.02;;;11.50;99.90;;;;;;5154997;27;20490;-71
2023/10/16 10:46:55;;;;;;;5.18;1.02;;;11.50;99.90;;;;;;5156291;27;20401;-71
2023/10/16 10:49:34;;;;;;;8.30;1.05;;;11.60;99.90;;;;;;5137565;27;20080;-71
2023/10/16 10:52:05;;;;;;;5.15;1.27;;;11.60;99.90;;;;;;5137604;27;20637;-71
2023/10/16 10:54:31;;;;;;;6.35;1.48;;;11.60;99.90;;;;;;5155086;27;20401;-71
2023/10/16 10:57:07;;;;;;;3.05;1.10;;;11.60;99.90;;;;;;5137476;27;20121;-71
2023/10/16 10:59:39;;;;;;;6.63;1.58;;;11.60;99.90;;;;;;5154616;27;20046;-71
2023/10/16 11:04:53;;;;;;;4.80;0.90;;;11.60;99.90;;;;;;5155966;27;20051;-71
2023/10/16 11:07:26;;;;;;;3.60;0.95;;;11.60;99.90;;;;;;5154833;27;20472;-71
2023/10/16 11:09:52;;;;;;;1.75;0.60;;;11.70;99.90;;;;;;5154262;27;20038;-70
2023/10/16 11:12:24;;;;;;;2.67;1.00;;;12.00;99.90;;;;;;5153842;27;20039;-69
2023/10/16 11:14:51;;;;;;;3.78;0.80;;;12.10;99.90;;;;;;5154247;27;20127;-70
2023/10/16 11:17:32;;;;;;;7.85;1.17;;;12.30;99.90;;;;;;5137336;27;20433;-70
2023/10/16 11:19:59;;;;;;;1.33;0.70;;;12.30;99.90;;;;;;5154438;27;20051;-70
2023/10/16 11:22:27;;;;;;;1.30;0.55;;;12.40;99.90;;;;;;5142509;27;20027;-70
2023/10/16 11:24:53;;;;;;;3.72;0.77;;;12.60;99.90;;;;;;5136904;27;20039;-70
2023/10/16 11:27:19;;;;;;;4.13;0.82;;;12.60;99.90;;;;;;5153876;27;20544;-69
2023/10/16 11:29:46;;;;;;;2.95;0.73;;;12.70;99.90;;;;;;5155201;27;20042;-69
2023/10/16 11:32:15;;;;;;;4.05;0.60;;;12.80;99.90;;;;;;5155178;27;20409;-70
2023/10/16 11:34:51;;;;;;;5.15;1.17;;;12.60;99.90;;;;;;5154331;27;20034;-69
2023/10/16 11:37:23;;;;;;;5.15;1.30;;;12.60;99.90;;;;;;5154088;27;20561;-69
2023/10/16 11:39:49;;;;;;;2.78;1.05;;;12.70;99.90;;;;;;5155195;27;20038;-69
2023/10/16 11:42:15;;;;;;;5.97;1.35;;;12.70;99.90;;;;;;5154880;27;20718;-70
2023/10/16 11:44:42;;;;;;;4.32;1.27;;;12.80;99.90;;;;;;5153895;27;20050;-70
2023/10/16 11:47:09;;;;;;;7.90;2.15;;;12.70;99.90;;;;;;5153803;27;20039;-69
2023/10/16 11:49:35;;;;;;;5.65;1.08;;;12.70;99.90;;;;;;5153643;27;20039;-69
2023/10/16 11:52:27;;;;;;;3.80;0.75;;;12.70;99.90;;;;;;5153814;27;20042;-69
2023/10/16 11:54:53;;;;;;;2.30;0.90;;;12.60;99.90;;;;;;5153286;27;20170;-69
2023/10/16 11:57:19;;;;;;;4.53;0.80;;;12.70;99.90;;;;;;5153848;27;20561;-69
2023/10/16 11:59:44;;;;;;;7.18;0.90;;;12.60;99.90;;;;;;5154860;27;20042;-69
2023/10/16 12:02:16;;;;;;;6.50;0.98;;;12.70;99.90;;;;;;5154673;27;20069;-69
2023/10/16 12:04:42;;;;;;;4.47;1.13;;;12.70;99.90;;;;;;5153559;27;20054;-70
2023/10/16 12:07:09;;;;;;;9.35;1.48;;;12.60;99.90;;;;;;5136292;27;20031;-69
2023/10/16 12:09:42;;;;;;;4.35;0.95;;;12.70;99.90;;;;;;5153299;27;20077;-70
2023/10/16 12:12:19;;;;;;;5.30;1.00;;;12.80;99.90;;;;;;5153579;27;20070;-70
2023/10/16 12:14:47;;;;;;;6.05;1.08;;;12.90;99.90;;;;;;5144276;27;20038;-70
2023/10/16 12:17:15;;;;;;;4.93;0.90;;;12.90;99.90;;;;;;5127171;27;20046;-70
2023/10/16 12:19:41;;;;;;;5.05;1.23;;;12.90;99.90;;;;;;5141280;27;20043;-69
2023/10/16 12:22:10;;;;;;;4.22;0.85;;;13.00;99.90;;;;;;5143847;27;20110;-70
2023/10/16 12:24:35;;;;;;;4.70;0.80;;;12.90;99.90;;;;;;5143818;27;20680;-69
2023/10/16 12:27:04;;;;;;;5.55;0.80;;;12.80;99.90;;;;;;5153234;27;20030;-70
2023/10/16 12:29:31;;;;;;;5.47;1.58;;;12.80;99.90;;;;;;5142662;27;20026;-70
2023/10/16 12:32:00;;;;;;;3.85;1.15;;;12.80;99.90;;;;;;5125473;27;20508;-69
2023/10/16 12:34:26;;;;;;;5.28;1.05;;;12.80;99.90;;;;;;5143930;27;20047;-70
2023/10/16 12:36:51;;;;;;;1.60;0.50;;;12.80;99.90;;;;;;5153711;27;20050;-70
2023/10/16 12:39:17;;;;;;;3.15;0.77;;;12.80;99.90;;;;;;5143142;27;20182;-70
2023/10/16 12:41:43;;;;;;;4.53;1.08;;;12.80;99.90;;;;;;5152679;27;20027;-70
2023/10/16 12:44:10;;;;;;;4.20;0.82;;;12.90;99.90;;;;;;5154116;27;20106;-70
2023/10/16 12:46:38;;;;;;;5.07;0.80;;;12.90;99.90;;;;;;5153793;27;20553;-70
2023/10/16 12:49:07;;;;;;;5.30;1.80;;;12.90;99.90;;;;;;5152708;27;20532;-69
2023/10/16 12:51:34;;;;;;;4.80;1.60;;;12.90;99.90;;;;;;5152355;27;20043;-70
2023/10/16 12:54:04;;;;;;;4.93;1.48;;;13.00;99.90;;;;;;5153990;27;20126;-70
2023/10/16 12:56:31;;;;;;;2.20;0.82;;;13.00;99.90;;;;;;5153700;27;20035;-70
2023/10/16 12:59:00;;;;;;;6.97;1.08;;;12.90;99.90;;;;;;5153796;27;20046;-70
2023/10/16 13:01:26;;;;;;;3.28;0.98;;;12.90;99.90;;;;;;5153302;27;20035;-70
2023/10/16 13:03:53;;;;;;;3.08;0.80;;;12.90;99.90;;;;;;5154102;27;20039;-70
2023/10/16 13:06:18;;;;;;;5.05;0.80;;;13.00;99.90;;;;;;5151944;27;20409;-70
2023/10/16 13:08:47;;;;;;;7.38;1.75;;;13.00;99.90;;;;;;5143416;27;20110;-70
2023/10/16 13:11:16;;;;;;;4.65;1.13;;;13.00;99.90;;;;;;5143545;27;20505;-70
2023/10/16 13:13:42;;;;;;;3.63;0.93;;;13.00;99.90;;;;;;5149620;27;20042;-70
2023/10/16 13:16:08;;;;;;;5.45;1.58;;;13.00;99.90;;;;;;5150445;27;20039;-70
2023/10/16 13:18:36;;;;;;;4.75;0.77;;;13.00;99.90;;;;;;5151557;27;20031;-70
2023/10/16 13:21:12;;;;;;;4.65;1.10;;;12.90;99.90;;;;;;5146574;27;20046;-70
2023/10/16 13:23:39;;;;;;;4.50;1.70;;;12.90;99.90;;;;;;5120747;27;20038;-70
2023/10/16 13:26:08;;;;;;;6.93;0.93;;;12.90;99.90;;;;;;5145514;27;20533;-69
2023/10/16 13:28:36;;;;;;;2.75;1.00;;;12.80;99.90;;;;;;5144504;27;20038;-70
2023/10/16 13:31:03;;;;;;;3.53;0.98;;;12.90;99.90;;;;;;5151860;27;20049;-70
2023/10/16 13:33:32;;;;;;;2.63;0.88;;;12.90;99.90;;;;;;5152238;27;20042;-69
2023/10/16 13:35:59;;;;;;;6.15;1.00;;;12.90;99.90;;;;;;5152050;27;20054;-70
2023/10/16 13:38:26;;;;;;;5.45;0.63;;;12.90;99.90;;;;;;5155996;27;20502;-70
2023/10/16 13:40:53;;;;;;;5.88;1.48;;;12.90;99.90;;;;;;5155921;27;20042;-70
2023/10/16 13:43:19;;;;;;;2.65;0.73;;;12.80;99.90;;;;;;5156241;27;20501;-70
2023/10/16 13:45:44;;;;;;;1.08;0.50;;;12.80;99.90;;;;;;5156200;27;20122;-70
2023/10/16 13:48:10;;;;;;;4.13;1.08;;;12.80;99.90;;;;;;5156058;27;20405;-70
2023/10/16 13:50:36;;;;;;;3.22;0.60;;;12.70;99.90;;;;;;5157172;27;20397;-70
2023/10/16 13:53:08;;;;;;;2.70;0.95;;;12.70;99.90;;;;;;5156087;27;20030;-70
2023/10/16 13:55:33;;;;;;;4.63;0.60;;;12.70;99.90;;;;;;5156120;27;20374;-70
2023/10/16 13:57:59;;;;;;;3.60;0.90;;;12.70;99.90;;;;;;5157304;27;20076;-70
2023/10/16 14:00:31;;;;;;;2.85;1.23;;;12.70;99.90;;;;;;5138450;27;20387;-70
2023/10/16 14:03:06;;;;;;;2.13;0.85;;;12.70;99.90;;;;;;5157259;27;20035;-70
2023/10/16 14:05:52;;;;;;;2.67;0.82;;;12.70;99.90;;;;;;5138487;27;20064;-70
2023/10/16 14:08:30;;;;;;;6.35;1.33;;;12.60;99.90;;;;;;5155731;27;20030;-70
2023/10/16 14:11:00;;;;;;;4.88;0.82;;;12.60;99.90;;;;;;5155463;27;20046;-70
2023/10/16 14:13:27;;;;;;;7.32;1.20;;;12.60;99.90;;;;;;5155702;27;20054;-70
2023/10/16 14:16:41;;;;;;;5.18;0.98;;;12.70;99.90;;;;;;5155667;27;20086;-70
2023/10/16 14:18:48;;;;;;;3.28;0.80;;;12.70;99.90;;;;;;5145666;27;20058;-70
2023/10/16 14:21:16;;;;;;;1.65;0.63;;;12.60;99.90;;;;;;5155386;27;20081;-70
2023/10/16 14:23:43;;;;;;;5.65;0.80;;;12.60;99.90;;;;;;5156868;27;20081;-70
2023/10/16 14:26:11;;;;;;;1.75;0.77;;;12.50;99.90;;;;;;5156589;27;20061;-70
2023/10/16 14:28:44;;;;;;;5.85;0.63;;;12.50;99.90;;;;;;5135308;22;20043;-69
2023/10/16 14:31:11;;;;;;;2.92;1.17;;;12.50;99.90;;;;;;5113589;28;20074;-68
2023/10/16 14:33:37;;;;;;;4.72;1.38;;;12.50;99.90;;;;;;5115525;28;20194;-68
2023/10/16 14:36:06;;;;;;;2.38;0.75;;;12.40;99.90;;;;;;5115240;28;20035;-70
2023/10/16 14:38:32;;;;;;;3.22;0.75;;;12.50;99.90;;;;;;5114858;28;20077;-70
2023/10/16 14:41:06;;;;;;;7.22;1.55;;;12.50;99.90;;;;;;5114899;28;20075;-70
2023/10/16 14:43:37;;;;;;;3.20;0.90;;;12.40;99.90;;;;;;5115383;28;20494;-68
2023/10/16 14:46:07;;;;;;;5.28;1.10;;;12.40;99.90;;;;;;5115258;28;20043;-68
2023/10/16 14:48:33;;;;;;;3.50;0.85;;;12.30;99.90;;;;;;5114430;28;20043;-68
2023/10/16 14:50:59;;;;;;;5.28;1.02;;;12.40;99.90;;;;;;5114659;28;20062;-68
2023/10/16 14:53:28;;;;;;;4.53;1.48;;;12.40;99.90;;;;;;5114772;28;20559;-68
2023/10/16 14:55:54;;;;;;;8.45;1.38;;;12.40;99.90;;;;;;5113444;28;20047;-68
2023/10/16 14:58:19;;;;;;;5.05;0.90;;;12.40;99.90;;;;;;5114875;28;20066;-68
2023/10/16 15:00:48;;;;;;;3.33;0.90;;;12.40;99.90;;;;;;5114559;28;20036;-68
2023/10/16 15:03:14;;;;;;;3.50;0.73;;;12.30;99.90;;;;;;5114662;28;20499;-71
2023/10/16 15:05:41;;;;;;;4.07;0.80;;;12.30;99.90;;;;;;5114790;28;20112;-70
2023/10/16 15:08:12;;;;;;;3.97;1.65;;;12.30;99.90;;;;;;5114541;27;20047;-68